Армань

СКИДКИ НА СМАРТФОНЫ!

Карта отелей и гостиниц, располагающихся рядом с аэропортом Армань :

Армань Магаданская область 59° 40' 26.6988" N, 150° 6' 49.7988" E
Армань Магаданская область 59° 40' 26.6988" N, 150° 6' 49.7988" E
Код аэродрома ИКАО
HCD8
Код аэродрома RU
ХЦД8
Координаты
N59.67408° E150.11383°
Превышение над уровнем моря
8
Основная полоса
03/21
Курс магнитный
030,7/210,7
Длина основной ВПП
12
Ширина основной ВПП
12
Покрытие основной ВПП
Твёрдое (бетон)
Освещение ВПП
Нет
Тип: 
Вертодром
Класс аэродрома: 
Принадлежность: 
ФСБ
Статус: 
Действующий
Сайт: 
E-mail аэродрома: 
Страна: 
Россия
Регион: 
Магаданская область
Город: 
Дополнительная информация: 
Оператор: погранзастава ФСБ России.

Скидки на навигаторы!

Найти трансфер

С помощью этой формы Вы можете найти трансфер из аэропорта Армань в город, аэропорт или вокзал:

Погода в аэропортах:

Авиационная погода в Ханты-Мансийске

Регион: 
Погода METAR: 
USHH 190400Z 27002MPS 9000 -SHRA BKN004CB 12/12 Q1024 R24/290050 TEMPO 2000 SHRA BKN003 OVC010CB
Время наблюдения
2022-08-19T04:00:00Z
Температура C
12.0
Точка росы
12.0
Направление ветра
270
Скорость ветра (узлы)
4
Метео видимость
5.59
Облачность
BKN
Нижняя граница облачности (футы)
400
Явления погоды
-SHRA
Условия полета
LIFR
Аэропорт подробнее: 
BKN – значительная (рассеянная, разорванная) облачность;
-SHRA - слабый ливневой дождь;

Авиационная погода в Липецке

Регион: 
Погода METAR: 
UUOL 190400Z 06009MPS 9999 -RA BKN009 16/16 Q1016 R33/290150 NOSIG
Время наблюдения
2022-08-19T04:00:00Z
Температура C
16.0
Точка росы
16.0
Направление ветра
60
Скорость ветра (узлы)
17
Метео видимость
6.21
Облачность
BKN
Нижняя граница облачности (футы)
900
Явления погоды
-RA
Условия полета
IFR
Аэропорт подробнее: 
BKN – значительная (рассеянная, разорванная) облачность;
-RA - слабый дождь;

Авиационная погода в Богашево

Регион: 
Погода METAR: 
UNTT 190400Z 24003MPS 0750 0650W R21/0750U FG VV001 11/11 Q1011 R21/290050 NOSIG RMK QBB050 QFE743
Время наблюдения
2022-08-19T04:00:00Z
Температура C
11.0
Точка росы
11.0
Направление ветра
240
Скорость ветра (узлы)
6
Метео видимость
0.47
Облачность
OVX
Нижняя граница облачности (футы)
0
Явления погоды
FG
Условия полета
LIFR
Аэропорт подробнее: 
FG – туман (небо не видно, температура воздуха выше нуля или ноль);

Авиационная погода в Кневичи

Регион: 
Погода METAR: 
UHWW 190400Z 18007G12MPS 9999 -SHRA SCT015 BKN040CB 24/22 Q0997 R25L/250060 NOSIG RMK QFE747
Время наблюдения
2022-08-19T04:00:00Z
Температура C
24.0
Точка росы
22.0
Направление ветра
180
Скорость ветра (узлы)
14
Метео видимость
6.21
Облачность
SCT
BKN
Нижняя граница облачности (футы)
1500
4000
Явления погоды
-SHRA
Условия полета
VFR
Аэропорт подробнее: 
SCT – разбросанная отдельная облачность; BKN – значительная (рассеянная, разорванная) облачность;
-SHRA - слабый ливневой дождь;